createdAt,value
2017-09-18T00:00:27.170Z,959.21
2017-09-18T00:01:07.756Z,959.21
2017-09-18T00:01:48.339Z,959.22
2017-09-18T00:02:28.924Z,959.26
2017-09-18T00:03:09.505Z,959.26
2017-09-18T00:03:50.072Z,959.3
2017-09-18T00:04:30.657Z,959.19
2017-09-18T00:05:11.239Z,959.22
2017-09-18T00:05:51.818Z,959.19
2017-09-18T00:06:32.396Z,959.25
2017-09-18T00:07:12.971Z,959.27
2017-09-18T00:07:53.559Z,959.21
2017-09-18T00:08:34.134Z,959.23
2017-09-18T00:09:14.723Z,959.2
2017-09-18T00:09:55.290Z,959.23
2017-09-18T00:10:35.863Z,959.21
2017-09-18T00:11:16.443Z,959.24
2017-09-18T00:11:57.032Z,959.22
2017-09-18T00:12:37.617Z,959.23
2017-09-18T00:13:18.191Z,959.19
2017-09-18T00:13:58.770Z,959.19
2017-09-18T00:14:39.351Z,959.22
2017-09-18T00:15:19.930Z,959.2
2017-09-18T00:16:00.519Z,959.24
2017-09-18T00:16:41.092Z,959.19
2017-09-18T00:17:21.672Z,959.23
2017-09-18T00:18:02.266Z,959.24
2017-09-18T00:18:42.847Z,959.23
2017-09-18T00:19:23.429Z,959.21
2017-09-18T00:20:04.005Z,959.23
2017-09-18T00:20:44.578Z,959.19
2017-09-18T00:21:25.165Z,959.2
2017-09-18T00:22:05.734Z,959.21
2017-09-18T00:22:46.309Z,959.14
2017-09-18T00:23:26.900Z,959.2
2017-09-18T00:24:07.478Z,959.16
2017-09-18T00:24:48.056Z,959.15
2017-09-18T00:25:28.638Z,959.1
2017-09-18T00:26:09.213Z,959.14
2017-09-18T00:26:49.804Z,959.15
2017-09-18T00:27:30.385Z,959.13
2017-09-18T00:28:10.967Z,959.18
2017-09-18T00:30:08.706Z,959.21
2017-09-18T00:30:49.279Z,959.22
2017-09-18T00:31:29.854Z,959.21
2017-09-18T01:10:47.807Z,959.22
2017-09-18T01:11:28.386Z,959.2
2017-09-18T01:12:08.970Z,959.24
2017-09-18T01:12:49.548Z,959.22
2017-09-18T01:13:30.125Z,959.19
2017-09-18T01:14:10.713Z,959.26
2017-09-18T01:14:51.295Z,959.29
2017-09-18T01:15:31.877Z,959.27
2017-09-18T01:16:12.460Z,959.21
2017-09-18T01:16:53.030Z,959.24
2017-09-18T01:17:33.610Z,959.26
2017-09-18T01:18:14.189Z,959.23
2017-09-18T01:18:54.764Z,959.24
2017-09-18T01:19:35.343Z,959.21
2017-09-18T01:20:15.923Z,959.21
2017-09-18T01:20:56.493Z,959.18
2017-09-18T01:21:37.075Z,959.17
2017-09-18T01:22:17.657Z,959.19
2017-09-18T01:22:58.246Z,959.14
2017-09-18T01:23:38.829Z,959.15
2017-09-18T01:24:19.405Z,959.15
2017-09-18T01:24:59.991Z,959.2
2017-09-18T01:27:28.098Z,959.18
2017-09-18T01:28:08.672Z,959.21
2017-09-18T01:28:49.247Z,959.23
2017-09-18T01:29:29.825Z,959.22
2017-09-18T01:30:10.412Z,959.26
2017-09-18T01:30:50.992Z,959.28
2017-09-18T01:31:31.557Z,959.29
2017-09-18T01:32:12.135Z,959.32
2017-09-18T01:32:52.712Z,959.32
2017-09-18T01:33:33.282Z,959.3
2017-09-18T01:34:13.846Z,959.29
2017-09-18T01:34:54.404Z,959.31
2017-09-18T01:35:34.981Z,959.29
2017-09-18T01:36:30.063Z,959.29
2017-09-18T01:37:10.636Z,959.31
2017-09-18T01:37:51.209Z,959.26
2017-09-18T01:38:31.783Z,959.27
2017-09-18T01:39:12.368Z,959.24
2017-09-18T01:39:52.933Z,959.27
2017-09-18T01:40:33.514Z,959.29
2017-09-18T01:41:14.098Z,959.28
2017-09-18T01:41:54.676Z,959.26
2017-09-18T01:42:35.245Z,959.29
2017-09-18T01:43:15.823Z,959.29
2017-09-18T01:43:56.404Z,959.28
2017-09-18T01:44:36.971Z,959.28
2017-09-18T01:45:17.551Z,959.29
2017-09-18T01:45:58.130Z,959.25
2017-09-18T01:46:38.714Z,959.26
2017-09-18T01:47:19.288Z,959.23
2017-09-18T01:47:59.868Z,959.27
2017-09-18T01:48:40.446Z,959.25
2017-09-18T01:49:21.027Z,959.26
2017-09-18T01:50:01.608Z,959.24
2017-09-18T01:50:42.200Z,959.28
2017-09-18T01:51:22.757Z,959.22
2017-09-18T01:52:19.353Z,959.2
2017-09-18T01:52:59.935Z,959.24
2017-09-18T01:53:40.510Z,959.22
2017-09-18T01:54:21.085Z,959.28
2017-09-18T01:55:01.668Z,959.29
2017-09-18T01:55:42.244Z,959.24
2017-09-18T01:56:22.812Z,959.22
2017-09-18T01:57:03.409Z,959.17
2017-09-18T01:57:43.986Z,959.21
2017-09-18T01:58:24.565Z,959.2
2017-09-18T01:59:05.146Z,959.23
2017-09-18T01:59:45.724Z,959.23
2017-09-18T02:00:26.302Z,959.22
2017-09-18T02:01:06.872Z,959.23
2017-09-18T02:01:47.448Z,959.23
2017-09-18T02:02:28.030Z,959.22
2017-09-18T02:03:08.606Z,959.23
2017-09-18T02:03:49.183Z,959.22
2017-09-18T02:04:29.748Z,959.26
2017-09-18T02:05:10.330Z,959.24
2017-09-18T02:05:50.907Z,959.23
2017-09-18T02:06:31.488Z,959.22
2017-09-18T02:07:12.055Z,959.22
2017-09-18T02:07:52.629Z,959.25
2017-09-18T02:08:33.218Z,959.25
2017-09-18T02:09:13.799Z,959.29
2017-09-18T02:09:54.396Z,959.29
2017-09-18T02:10:34.979Z,959.31
2017-09-18T02:11:15.550Z,959.3
2017-09-18T02:11:56.140Z,959.31
2017-09-18T02:12:36.715Z,959.33
2017-09-18T02:13:17.300Z,959.37
2017-09-18T02:13:57.876Z,959.37
2017-09-18T02:14:38.450Z,959.38
2017-09-18T02:15:19.033Z,959.37
2017-09-18T02:15:59.613Z,959.35
2017-09-18T02:16:40.195Z,959.37
2017-09-18T02:17:20.767Z,959.38
2017-09-18T02:18:01.349Z,959.39
2017-09-18T02:18:41.933Z,959.37
2017-09-18T02:19:22.508Z,959.37
2017-09-18T02:20:03.092Z,959.39
2017-09-18T02:20:43.674Z,959.4
2017-09-18T02:21:24.257Z,959.4
2017-09-18T02:22:04.829Z,959.42
2017-09-18T02:22:45.402Z,959.42
2017-09-18T02:23:25.974Z,959.41
2017-09-18T02:24:06.550Z,959.41
2017-09-18T02:24:47.123Z,959.43
2017-09-18T02:25:27.705Z,959.41
2017-09-18T02:26:08.287Z,959.43
2017-09-18T02:26:48.873Z,959.41
2017-09-18T02:27:29.445Z,959.43
2017-09-18T02:28:10.022Z,959.42
2017-09-18T02:28:50.589Z,959.44
2017-09-18T02:29:31.175Z,959.37
2017-09-18T02:30:11.748Z,959.41
2017-09-18T02:30:52.333Z,959.41
2017-09-18T02:31:32.908Z,959.43
2017-09-18T02:32:28.469Z,959.45
2017-09-18T02:33:09.055Z,959.48
2017-09-18T02:33:49.623Z,959.46
2017-09-18T02:34:30.207Z,959.42
2017-09-18T02:35:10.780Z,959.45
2017-09-18T02:35:51.367Z,959.44
2017-09-18T02:36:31.932Z,959.46
2017-09-18T02:37:12.521Z,959.41
2017-09-18T02:37:53.101Z,959.41
2017-09-18T02:38:33.680Z,959.42
2017-09-18T02:39:14.255Z,959.41
2017-09-18T02:39:54.834Z,959.38
2017-09-18T02:40:35.408Z,959.39
2017-09-18T02:41:15.996Z,959.4
2017-09-18T02:41:56.597Z,959.42
2017-09-18T02:42:37.152Z,959.4
2017-09-18T02:43:17.722Z,959.42
2017-09-18T02:43:58.302Z,959.44
2017-09-18T02:44:38.885Z,959.45
2017-09-18T02:45:19.452Z,959.45
2017-09-18T02:46:00.022Z,959.42
2017-09-18T02:46:40.609Z,959.45
2017-09-18T02:47:21.179Z,959.48
2017-09-18T02:48:01.750Z,959.51
2017-09-18T02:48:42.322Z,959.47
2017-09-18T02:49:22.896Z,959.5
2017-09-18T02:51:20.629Z,959.45
2017-09-18T02:52:01.187Z,959.46
2017-09-18T02:52:41.748Z,959.49
2017-09-18T02:53:22.327Z,959.47
2017-09-18T02:54:02.902Z,959.46
2017-09-18T02:54:43.483Z,959.47
2017-09-18T02:55:24.056Z,959.45
2017-09-18T02:56:04.631Z,959.43
2017-09-18T02:56:45.203Z,959.43
2017-09-18T02:57:25.769Z,959.43
2017-09-18T02:58:06.357Z,959.42
2017-09-18T02:58:46.936Z,959.45
2017-09-18T02:59:27.509Z,959.47
2017-09-18T03:00:08.082Z,959.49
2017-09-18T03:00:48.657Z,959.47
2017-09-18T03:01:29.230Z,959.44
2017-09-18T03:02:09.810Z,959.46
2017-09-18T03:03:07.347Z,959.43
2017-09-18T03:03:47.925Z,959.44
2017-09-18T03:04:28.504Z,959.41
2017-09-18T03:05:09.079Z,959.43
2017-09-18T03:05:49.651Z,959.43
2017-09-18T03:06:30.222Z,959.39
2017-09-18T03:07:10.794Z,959.42
2017-09-18T03:07:51.376Z,959.43
2017-09-18T03:08:31.962Z,959.43
2017-09-18T03:09:12.539Z,959.43
2017-09-18T03:09:53.118Z,959.44
2017-09-18T03:10:34.395Z,959.41
2017-09-18T03:11:14.984Z,959.41
2017-09-18T03:11:55.568Z,959.44
2017-09-18T03:12:36.148Z,959.41
2017-09-18T03:13:16.723Z,959.42
2017-09-18T03:13:59.893Z,959.4
2017-09-18T03:14:40.463Z,959.46
2017-09-18T03:15:21.048Z,959.47
2017-09-18T03:16:01.702Z,959.45
2017-09-18T03:16:42.272Z,959.46
2017-09-18T03:17:22.912Z,959.43
2017-09-18T03:18:03.601Z,959.44
2017-09-18T03:18:44.265Z,959.42
2017-09-18T03:19:24.836Z,959.41
2017-09-18T03:20:05.413Z,959.42
2017-09-18T03:20:46.025Z,959.41
2017-09-18T03:21:26.637Z,959.45
2017-09-18T03:22:07.220Z,959.43
2017-09-18T03:22:47.880Z,959.46
2017-09-18T03:23:28.457Z,959.44
2017-09-18T03:24:09.074Z,959.44
2017-09-18T03:24:49.761Z,959.46
2017-09-18T03:25:30.414Z,959.48
2017-09-18T03:26:10.993Z,959.53
2017-09-18T03:26:51.598Z,959.48
2017-09-18T03:27:32.304Z,959.48
2017-09-18T03:28:12.852Z,959.47
2017-09-18T03:28:53.550Z,959.49
2017-09-18T03:29:34.347Z,959.46
2017-09-18T03:30:15.059Z,959.46
2017-09-18T03:30:55.674Z,959.43
2017-09-18T03:31:36.328Z,959.46
2017-09-18T03:32:17.000Z,959.5
2017-09-18T03:32:57.661Z,959.43
2017-09-18T03:33:38.229Z,959.45
2017-09-18T03:34:18.809Z,959.47
2017-09-18T03:34:59.382Z,959.42
2017-09-18T03:35:40.111Z,959.46
2017-09-18T03:36:20.698Z,959.44
2017-09-18T03:37:01.273Z,959.41
2017-09-18T03:37:41.928Z,959.46
2017-09-18T03:38:22.518Z,959.47
2017-09-18T03:39:03.198Z,959.44
2017-09-18T03:39:43.852Z,959.47
2017-09-18T03:40:25.441Z,959.47
2017-09-18T03:41:06.018Z,959.49
2017-09-18T03:41:46.605Z,959.48
2017-09-18T03:42:27.193Z,959.49
2017-09-18T03:43:07.850Z,959.5
2017-09-18T03:43:48.399Z,959.53
2017-09-18T03:44:28.981Z,959.54
2017-09-18T03:45:09.565Z,959.55
2017-09-18T03:45:50.136Z,959.56
2017-09-18T03:46:30.758Z,959.56
2017-09-18T03:47:11.338Z,959.55
2017-09-18T03:47:51.957Z,959.58
2017-09-18T03:48:32.695Z,959.53
2017-09-18T03:49:13.312Z,959.6
2017-09-18T03:49:55.781Z,959.6
2017-09-18T03:50:36.355Z,959.59
2017-09-18T03:51:17.608Z,959.61
2017-09-18T03:51:58.199Z,959.61
2017-09-18T03:52:38.767Z,959.59
2017-09-18T03:53:19.340Z,959.54
2017-09-18T03:53:59.919Z,959.58
2017-09-18T03:54:40.504Z,959.58
2017-09-18T03:55:21.096Z,959.59
2017-09-18T03:56:01.675Z,959.64
2017-09-18T03:56:42.253Z,959.61
2017-09-18T03:57:22.827Z,959.6
2017-09-18T03:58:03.398Z,959.59
2017-09-18T03:58:43.971Z,959.6
2017-09-18T03:59:24.550Z,959.59
2017-09-18T04:00:05.134Z,959.61
2017-09-18T04:00:45.699Z,959.59
2017-09-18T04:01:26.284Z,959.6
2017-09-18T04:02:06.861Z,959.62
2017-09-18T04:02:47.432Z,959.64
2017-09-18T04:03:28.012Z,959.61
2017-09-18T04:04:08.612Z,959.65
2017-09-18T04:04:49.173Z,959.6
2017-09-18T04:05:29.743Z,959.61
2017-09-18T04:06:10.328Z,959.6
2017-09-18T04:06:50.904Z,959.59
2017-09-18T04:07:31.486Z,959.59
2017-09-18T04:08:12.045Z,959.53
2017-09-18T04:08:52.623Z,959.54
2017-09-18T04:09:33.196Z,959.61
2017-09-18T04:10:13.776Z,959.56
2017-09-18T04:10:54.397Z,959.53
2017-09-18T04:11:34.972Z,959.55
2017-09-18T04:12:15.551Z,959.59
2017-09-18T04:12:56.119Z,959.58
2017-09-18T04:13:36.695Z,959.55
2017-09-18T04:14:17.268Z,959.53
2017-09-18T04:14:57.847Z,959.54
2017-09-18T04:15:38.424Z,959.55
2017-09-18T04:16:19.008Z,959.52
2017-09-18T04:16:59.583Z,959.54
2017-09-18T04:17:40.154Z,959.52
2017-09-18T04:18:20.743Z,959.49
2017-09-18T04:19:01.320Z,959.5
2017-09-18T04:19:41.880Z,959.5
2017-09-18T04:20:22.491Z,959.54
2017-09-18T04:21:03.066Z,959.55
2017-09-18T04:21:43.646Z,959.55
2017-09-18T04:22:24.227Z,959.52
2017-09-18T04:23:04.811Z,959.54
2017-09-18T04:23:45.391Z,959.56
2017-09-18T04:24:25.968Z,959.59
2017-09-18T04:25:06.550Z,959.58
2017-09-18T04:25:47.124Z,959.55
2017-09-18T04:26:27.706Z,959.62
2017-09-18T04:27:08.276Z,959.59
2017-09-18T04:27:48.869Z,959.61
2017-09-18T04:28:29.449Z,959.63
2017-09-18T04:29:10.028Z,959.57
2017-09-18T04:29:50.601Z,959.61
2017-09-18T04:30:31.178Z,959.63
2017-09-18T04:31:11.765Z,959.59
2017-09-18T04:31:52.340Z,959.61
2017-09-18T04:32:32.913Z,959.61
2017-09-18T04:33:13.490Z,959.63
2017-09-18T04:33:54.067Z,959.66
2017-09-18T04:34:34.656Z,959.64
2017-09-18T04:35:15.233Z,959.67
2017-09-18T04:35:55.820Z,959.67
2017-09-18T04:36:36.393Z,959.67
2017-09-18T04:37:16.967Z,959.67
2017-09-18T04:37:57.545Z,959.69
2017-09-18T04:38:38.112Z,959.68
2017-09-18T04:39:18.688Z,959.73
2017-09-18T04:39:59.264Z,959.7
2017-09-18T04:40:39.845Z,959.69
2017-09-18T04:41:20.433Z,959.71
2017-09-18T04:42:01.012Z,959.71
2017-09-18T04:42:41.589Z,959.73
2017-09-18T04:43:22.163Z,959.75
2017-09-18T04:44:02.743Z,959.75
2017-09-18T04:44:43.326Z,959.75
2017-09-18T04:45:23.905Z,959.73
2017-09-18T04:46:09.489Z,959.74
2017-09-18T04:46:50.065Z,959.75
2017-09-18T04:47:30.649Z,959.77
2017-09-18T04:48:11.232Z,959.74
2017-09-18T04:48:51.808Z,959.76
2017-09-18T04:49:32.389Z,959.73
2017-09-18T04:50:12.979Z,959.73
2017-09-18T04:50:53.563Z,959.77
2017-09-18T04:51:34.149Z,959.73
2017-09-18T04:52:14.716Z,959.78
2017-09-18T04:52:55.294Z,959.72
2017-09-18T04:53:35.882Z,959.76
2017-09-18T04:54:16.470Z,959.76
2017-09-18T04:54:57.043Z,959.79
2017-09-18T04:55:37.624Z,959.8
2017-09-18T04:56:18.201Z,959.79
2017-09-18T04:56:58.778Z,959.82
2017-09-18T04:57:39.364Z,959.85
2017-09-18T04:58:19.935Z,959.82
2017-09-18T04:59:00.506Z,959.86
2017-09-18T04:59:41.083Z,959.86
2017-09-18T05:00:21.665Z,959.83
2017-09-18T05:01:02.241Z,959.86
2017-09-18T05:01:42.828Z,959.88
2017-09-18T05:02:23.414Z,959.87
2017-09-18T05:03:03.995Z,959.89
2017-09-18T05:03:44.574Z,959.88
2017-09-18T05:04:25.153Z,959.87
2017-09-18T05:05:05.728Z,959.89
2017-09-18T05:05:46.302Z,959.89
2017-09-18T05:06:26.900Z,959.87
2017-09-18T05:07:07.468Z,959.9
2017-09-18T05:07:48.041Z,959.9
2017-09-18T05:08:28.623Z,959.88
2017-09-18T05:09:09.189Z,959.89
2017-09-18T05:09:49.776Z,959.88
2017-09-18T05:10:30.356Z,959.9
2017-09-18T05:11:10.940Z,959.88
2017-09-18T05:11:51.515Z,959.9
2017-09-18T05:12:32.105Z,959.87
2017-09-18T05:14:24.736Z,959.93
2017-09-18T05:15:05.316Z,959.94
2017-09-18T05:15:45.900Z,959.97
2017-09-18T05:16:26.481Z,959.97
2017-09-18T05:17:07.050Z,960.02
2017-09-18T05:17:47.628Z,960.02
2017-09-18T05:18:28.192Z,960.01
2017-09-18T05:19:08.774Z,960.02
2017-09-18T05:19:49.345Z,960.06
2017-09-18T05:20:29.938Z,960.04
2017-09-18T05:21:10.517Z,960.03
2017-09-18T05:21:51.086Z,960.04
2017-09-18T05:22:31.669Z,960.05
2017-09-18T05:23:12.252Z,960.05
2017-09-18T05:23:52.821Z,960.07
2017-09-18T05:24:33.402Z,960.07
2017-09-18T05:25:13.981Z,960.06
2017-09-18T05:25:54.567Z,960.09
2017-09-18T05:26:35.148Z,960.09
2017-09-18T05:27:15.735Z,960.1
2017-09-18T05:27:56.317Z,960.07
2017-09-18T05:28:36.899Z,960.11
2017-09-18T05:29:17.480Z,960.08
2017-09-18T05:29:58.059Z,960.1
2017-09-18T05:30:38.628Z,960.11
2017-09-18T05:31:19.190Z,960.13
2017-09-18T05:31:59.771Z,960.13
2017-09-18T05:32:40.356Z,960.14
2017-09-18T05:33:20.941Z,960.13
2017-09-18T05:34:01.526Z,960.15
2017-09-18T05:34:42.091Z,960.14
2017-09-18T05:35:22.667Z,960.14
2017-09-18T05:36:03.248Z,960.14
2017-09-18T05:36:43.826Z,960.13
2017-09-18T05:37:24.407Z,960.14
2017-09-18T05:38:04.987Z,960.14
2017-09-18T05:38:45.563Z,960.14
2017-09-18T05:39:26.141Z,960.16
2017-09-18T05:40:06.711Z,960.15
2017-09-18T05:40:47.293Z,960.12
2017-09-18T05:41:27.870Z,960.15
2017-09-18T05:42:08.451Z,960.15
2017-09-18T05:42:49.034Z,960.15
2017-09-18T05:43:29.611Z,960.18
2017-09-18T05:44:10.191Z,960.15
2017-09-18T05:44:50.765Z,960.2
2017-09-18T05:45:31.357Z,960.21
2017-09-18T05:46:11.935Z,960.25
2017-09-18T05:46:52.517Z,960.21
2017-09-18T05:47:33.095Z,960.22
2017-09-18T05:48:13.671Z,960.24
2017-09-18T05:48:54.255Z,960.21
2017-09-18T05:49:34.836Z,960.27
2017-09-18T05:50:15.416Z,960.23
2017-09-18T05:50:56.010Z,960.23
2017-09-18T05:51:36.583Z,960.23
2017-09-18T05:52:17.163Z,960.23
2017-09-18T05:52:57.729Z,960.26
2017-09-18T05:53:38.305Z,960.24
2017-09-18T05:54:18.888Z,960.24
2017-09-18T05:55:14.111Z,960.23
2017-09-18T05:55:54.692Z,960.27
2017-09-18T05:56:35.276Z,960.28
2017-09-18T05:57:15.857Z,960.29
2017-09-18T05:57:56.438Z,960.26
2017-09-18T05:58:37.019Z,960.25
2017-09-18T05:59:17.592Z,960.24
2017-09-18T05:59:58.167Z,960.26
2017-09-18T06:00:38.751Z,960.27
2017-09-18T06:01:19.333Z,960.25
2017-09-18T06:01:59.919Z,960.26
2017-09-18T06:04:17.857Z,960.27
2017-09-18T06:04:58.439Z,960.29
2017-09-18T06:05:39.019Z,960.26
2017-09-18T06:06:19.594Z,960.27
2017-09-18T06:07:00.176Z,960.28
2017-09-18T06:07:40.751Z,960.3
2017-09-18T06:08:21.337Z,960.3
2017-09-18T06:09:01.911Z,960.29
2017-09-18T06:09:42.488Z,960.31
2017-09-18T06:10:23.071Z,960.29
2017-09-18T06:11:03.643Z,960.29
2017-09-18T06:11:44.223Z,960.32
2017-09-18T06:12:24.806Z,960.33
2017-09-18T06:13:05.380Z,960.36
2017-09-18T06:13:45.967Z,960.31
2017-09-18T06:14:26.548Z,960.3
2017-09-18T06:15:07.129Z,960.33
2017-09-18T06:15:47.708Z,960.3
2017-09-18T06:16:28.295Z,960.33
2017-09-18T06:17:08.873Z,960.35
2017-09-18T06:17:49.458Z,960.29
2017-09-18T06:18:30.059Z,960.37
2017-09-18T06:19:10.616Z,960.33
2017-09-18T06:19:51.201Z,960.32
2017-09-18T06:20:31.777Z,960.29
2017-09-18T06:21:12.358Z,960.31
2017-09-18T06:21:52.939Z,960.33
2017-09-18T06:22:33.518Z,960.34
2017-09-18T06:23:14.082Z,960.34
2017-09-18T06:23:54.666Z,960.32
2017-09-18T06:24:35.246Z,960.3
2017-09-18T06:25:15.826Z,960.37
2017-09-18T06:25:56.414Z,960.33
2017-09-18T06:26:36.997Z,960.36
2017-09-18T06:27:17.572Z,960.36
2017-09-18T06:27:58.165Z,960.38
2017-09-18T06:28:38.747Z,960.37
2017-09-18T06:29:19.332Z,960.34
2017-09-18T06:29:59.904Z,960.33
2017-09-18T06:30:40.483Z,960.34
2017-09-18T06:31:21.055Z,960.38
2017-09-18T06:32:01.638Z,960.37
2017-09-18T06:32:42.213Z,960.41
2017-09-18T06:33:22.806Z,960.4
2017-09-18T06:34:03.385Z,960.42
2017-09-18T06:34:43.965Z,960.39
2017-09-18T06:35:24.539Z,960.41
2017-09-18T06:36:05.117Z,960.42
2017-09-18T06:36:45.706Z,960.44
2017-09-18T06:37:26.284Z,960.41
2017-09-18T06:38:06.866Z,960.44
2017-09-18T06:38:47.441Z,960.51
2017-09-18T06:39:28.028Z,960.51
2017-09-18T06:40:08.608Z,960.55
2017-09-18T06:40:49.185Z,960.52
2017-09-18T06:41:29.760Z,960.53
2017-09-18T06:42:10.339Z,960.51
2017-09-18T06:42:50.909Z,960.53
2017-09-18T06:43:31.486Z,960.52
2017-09-18T06:44:12.074Z,960.49
2017-09-18T06:44:52.660Z,960.51
2017-09-18T06:45:33.237Z,960.52
2017-09-18T06:46:13.819Z,960.53
2017-09-18T06:46:54.405Z,960.51
2017-09-18T06:47:34.977Z,960.53
2017-09-18T06:48:15.575Z,960.55
2017-09-18T06:48:56.143Z,960.54
2017-09-18T06:49:36.715Z,960.58
2017-09-18T06:50:17.289Z,960.6
2017-09-18T06:50:57.869Z,960.64
2017-09-18T06:51:38.458Z,960.66
2017-09-18T06:52:19.038Z,960.66
2017-09-18T06:52:59.613Z,960.67
2017-09-18T06:53:40.192Z,960.66
2017-09-18T06:54:20.772Z,960.61
2017-09-18T06:55:01.358Z,960.65
2017-09-18T06:55:41.945Z,960.68
2017-09-18T06:56:22.529Z,960.66
2017-09-18T06:57:03.108Z,960.66
2017-09-18T06:57:43.700Z,960.68
2017-09-18T06:58:24.268Z,960.64
2017-09-18T06:59:04.854Z,960.68
2017-09-18T06:59:45.438Z,960.67
2017-09-18T07:00:26.020Z,960.69
2017-09-18T07:01:06.598Z,960.66
2017-09-18T07:01:47.181Z,960.67
2017-09-18T07:02:27.757Z,960.69
2017-09-18T07:03:08.349Z,960.71
2017-09-18T07:03:48.920Z,960.71
2017-09-18T07:04:29.507Z,960.76
2017-09-18T07:05:10.095Z,960.74
2017-09-18T07:05:50.681Z,960.72
2017-09-18T07:06:31.261Z,960.74
2017-09-18T07:07:11.835Z,960.75
2017-09-18T07:07:52.431Z,960.72
2017-09-18T07:08:33.017Z,960.75
2017-09-18T07:09:13.593Z,960.76
2017-09-18T07:09:54.178Z,960.76
2017-09-18T07:10:34.760Z,960.73
2017-09-18T07:11:15.343Z,960.78
2017-09-18T07:11:55.921Z,960.75
2017-09-18T07:12:36.513Z,960.81
2017-09-18T07:13:17.091Z,960.74
2017-09-18T07:13:57.674Z,960.77
2017-09-18T07:14:38.258Z,960.77
2017-09-18T07:15:18.848Z,960.74
2017-09-18T07:15:59.418Z,960.76
2017-09-18T07:16:40.000Z,960.73
2017-09-18T07:17:20.576Z,960.72
2017-09-18T07:18:01.161Z,960.75
2017-09-18T07:18:41.736Z,960.74
2017-09-18T07:19:22.319Z,960.75
2017-09-18T07:20:02.919Z,960.79
2017-09-18T07:20:43.482Z,960.73
2017-09-18T07:21:24.058Z,960.74
2017-09-18T07:22:04.633Z,960.76
2017-09-18T07:22:45.212Z,960.76
2017-09-18T07:23:25.787Z,960.77
2017-09-18T07:24:06.378Z,960.83
2017-09-18T07:24:46.964Z,960.84
2017-09-18T07:25:27.547Z,960.84
2017-09-18T07:26:08.124Z,960.84
2017-09-18T07:26:48.696Z,960.83
2017-09-18T07:27:29.279Z,960.82
2017-09-18T07:28:09.853Z,960.79
2017-09-18T07:28:50.424Z,960.88
2017-09-18T07:29:31.020Z,960.88
2017-09-18T07:30:11.584Z,960.87
2017-09-18T07:30:52.162Z,960.95
2017-09-18T07:31:32.754Z,960.96
2017-09-18T07:32:13.339Z,960.91
2017-09-18T07:32:53.922Z,960.93
2017-09-18T07:33:34.507Z,960.96
2017-09-18T07:34:15.090Z,960.98
2017-09-18T07:34:55.675Z,960.99
2017-09-18T07:35:36.241Z,960.98
2017-09-18T07:36:16.821Z,961.03
2017-09-18T07:36:57.410Z,961.02
2017-09-18T07:37:37.993Z,961.01
2017-09-18T07:38:18.577Z,961.02
2017-09-18T07:38:59.162Z,961.02
2017-09-18T07:39:39.744Z,961.01
2017-09-18T07:40:20.330Z,961.03
2017-09-18T07:41:00.908Z,961.05
2017-09-18T07:41:41.485Z,961.07
2017-09-18T07:42:22.069Z,961.08
2017-09-18T07:43:02.648Z,961.05
2017-09-18T07:43:43.228Z,961.05
2017-09-18T07:44:23.806Z,961.06
2017-09-18T07:45:04.393Z,961.06
2017-09-18T07:45:44.981Z,961.08
2017-09-18T07:46:25.557Z,961.09
2017-09-18T07:47:06.139Z,961.08
2017-09-18T07:47:46.723Z,961.11
2017-09-18T07:48:27.315Z,961.07
2017-09-18T07:49:07.896Z,961.07
2017-09-18T07:49:48.472Z,961.14
2017-09-18T07:50:29.056Z,961.07
2017-09-18T07:51:09.632Z,961.11
2017-09-18T07:51:50.215Z,961.07
2017-09-18T07:52:30.791Z,961.06
2017-09-18T07:53:11.370Z,961.09
2017-09-18T07:53:51.952Z,961.06
2017-09-18T07:54:32.536Z,961.04
2017-09-18T07:55:13.114Z,961.05
2017-09-18T07:55:53.698Z,961.1
2017-09-18T07:56:34.284Z,961.04
2017-09-18T07:57:14.867Z,961.08
2017-09-18T07:57:55.447Z,961.07
2017-09-18T07:58:36.031Z,961.1
2017-09-18T07:59:16.611Z,961.12
2017-09-18T07:59:57.195Z,961.09
2017-09-18T08:00:37.776Z,961.07
2017-09-18T08:01:18.357Z,961.09
2017-09-18T08:01:58.939Z,961.1
2017-09-18T08:02:39.523Z,961.09
2017-09-18T08:03:20.109Z,961.13
2017-09-18T08:04:00.673Z,961.12
2017-09-18T08:04:41.247Z,961.14
2017-09-18T08:05:21.829Z,961.12
2017-09-18T08:06:02.410Z,961.14
2017-09-18T08:06:42.990Z,961.09
2017-09-18T08:07:23.571Z,961.11
2017-09-18T08:08:04.144Z,961.15
2017-09-18T08:08:44.725Z,961.11
2017-09-18T08:09:25.304Z,961.14
2017-09-18T08:10:05.890Z,961.17
2017-09-18T08:10:46.471Z,961.13
2017-09-18T08:11:27.046Z,961.13
2017-09-18T08:12:07.632Z,961.13
2017-09-18T08:12:48.213Z,961.19
2017-09-18T08:13:28.784Z,961.11
2017-09-18T08:14:09.366Z,961.2
2017-09-18T08:14:49.946Z,961.14
2017-09-18T08:15:30.527Z,961.17
2017-09-18T08:16:11.104Z,961.17
2017-09-18T08:16:51.694Z,961.2
2017-09-18T08:17:32.273Z,961.22
2017-09-18T08:18:12.854Z,961.17
2017-09-18T08:18:53.420Z,961.16
2017-09-18T08:19:33.997Z,961.19
2017-09-18T08:20:14.573Z,961.17
2017-09-18T08:20:55.157Z,961.25
2017-09-18T08:21:35.733Z,961.19
2017-09-18T08:22:16.319Z,961.28
2017-09-18T08:22:56.897Z,961.27
2017-09-18T08:23:37.481Z,961.27
2017-09-18T08:24:18.062Z,961.29
2017-09-18T08:24:58.638Z,961.29
2017-09-18T08:25:39.221Z,961.28
2017-09-18T08:26:19.806Z,961.32
2017-09-18T08:27:00.379Z,961.32
2017-09-18T08:27:40.968Z,961.28
2017-09-18T08:28:21.551Z,961.26
2017-09-18T08:29:02.133Z,961.26
2017-09-18T08:30:59.861Z,961.3
2017-09-18T08:31:40.444Z,961.21
2017-09-18T08:32:21.022Z,961.28
2017-09-18T08:33:01.609Z,961.28
2017-09-18T08:33:42.191Z,961.26
2017-09-18T08:34:22.766Z,961.29
2017-09-18T08:35:03.357Z,961.27
2017-09-18T08:35:43.934Z,961.29
2017-09-18T08:36:24.512Z,961.3
2017-09-18T08:37:05.100Z,961.28
2017-09-18T08:37:45.681Z,961.28
2017-09-18T08:38:26.268Z,961.28
2017-09-18T08:39:06.847Z,961.34
2017-09-18T08:39:47.426Z,961.34
2017-09-18T08:40:28.008Z,961.33
2017-09-18T08:41:08.594Z,961.35
2017-09-18T08:41:49.169Z,961.41
2017-09-18T08:42:29.753Z,961.41
2017-09-18T08:43:10.328Z,961.43
2017-09-18T08:43:50.916Z,961.44
2017-09-18T08:44:31.495Z,961.42
2017-09-18T08:45:12.074Z,961.38
2017-09-18T08:45:52.649Z,961.4
2017-09-18T08:46:33.229Z,961.42
2017-09-18T08:47:13.804Z,961.46
2017-09-18T08:47:54.377Z,961.47
2017-09-18T08:48:34.959Z,961.44
2017-09-18T08:49:15.537Z,961.44
2017-09-18T08:49:56.120Z,961.45
2017-09-18T08:50:36.684Z,961.44
2017-09-18T08:51:17.263Z,961.43
2017-09-18T08:51:57.840Z,961.43
2017-09-18T08:52:38.421Z,961.41
2017-09-18T08:53:19.006Z,961.4
2017-09-18T08:53:59.589Z,961.41
2017-09-18T08:54:40.175Z,961.38
2017-09-18T08:55:20.754Z,961.37
2017-09-18T08:56:01.332Z,961.34
2017-09-18T08:56:41.906Z,961.32
2017-09-18T08:57:22.492Z,961.34
2017-09-18T08:58:03.078Z,961.36
2017-09-18T08:58:43.659Z,961.35
2017-09-18T08:59:24.246Z,961.37
2017-09-18T09:00:04.830Z,961.33
2017-09-18T09:00:45.416Z,961.29
2017-09-18T09:01:26.001Z,961.29
2017-09-18T09:02:06.588Z,961.32
2017-09-18T09:02:47.171Z,961.34
2017-09-18T09:03:27.754Z,961.41
2017-09-18T09:04:08.332Z,961.34
2017-09-18T09:04:48.914Z,961.4
2017-09-18T09:05:29.501Z,961.36
2017-09-18T09:06:10.076Z,961.36
2017-09-18T09:06:50.664Z,961.37
2017-09-18T09:07:31.252Z,961.39
2017-09-18T09:08:11.841Z,961.38
2017-09-18T09:08:52.420Z,961.43
2017-09-18T09:09:33.008Z,961.4
2017-09-18T09:10:13.589Z,961.41
2017-09-18T09:10:54.180Z,961.4
2017-09-18T09:11:34.767Z,961.37
2017-09-18T09:12:15.348Z,961.41
2017-09-18T09:12:55.921Z,961.44
2017-09-18T09:13:36.494Z,961.44
2017-09-18T09:14:17.073Z,961.43
2017-09-18T09:14:57.660Z,961.41
2017-09-18T09:15:38.240Z,961.38
2017-09-18T09:16:18.825Z,961.35